Burt Lake, Michigan
Current Conditions -  °F | °C
As of 2:54 AM on Monday 24 Nov 2014 (Local Time) from KPLN Reporting Station
Moderate Rain Moderate Rain  
Wind Chill: 38°   Ceiling: 500
Heat Index: 43°   Visibility: 5mi
Dew Point: 43°   Wind: 8mph
Humidity: 100%   Direction: 90°E
Pressure: 29.06"   Gusts: NA
Location:  45.44°N, 84.71°W
Report Text: KPLN 240754Z AUTO 09007KT 5SM RA BR OVC005 06/06 A2906 RMK AO2 SLP843 P0015 T00610061
Loading
Personal Weather Stations






























Interactive Weather Map New forecast layout! Learn more

10-Day Weather Forecast

Advertisements
Track Severe Weather on mobile